sensor_id;sensor_type;location;lat;lon;timestamp;P1;P2;P0
49644;PMS5003;36494;50.730;-1.932;2024-01-27T00:00:58;49;48;
49644;PMS5003;36494;50.730;-1.932;2024-01-27T00:03:23;61;60;
49644;PMS5003;36494;50.730;-1.932;2024-01-27T00:05:48;75;67;
49644;PMS5003;36494;50.730;-1.932;2024-01-27T00:08:14;75;70;
49644;PMS5003;36494;50.730;-1.932;2024-01-27T00:10:39;72;67;
49644;PMS5003;36494;50.730;-1.932;2024-01-27T00:13:05;72;70;
49644;PMS5003;36494;50.730;-1.932;2024-01-27T00:15:30;66;61;
49644;PMS5003;36494;50.730;-1.932;2024-01-27T00:17:56;63;58;
49644;PMS5003;36494;50.730;-1.932;2024-01-27T00:20:22;76;72;
49644;PMS5003;36494;50.730;-1.932;2024-01-27T00:22:47;79;73;
49644;PMS5003;36494;50.730;-1.932;2024-01-27T00:25:13;100;97;
49644;PMS5003;36494;50.730;-1.932;2024-01-27T00:27:38;79;72;
49644;PMS5003;36494;50.730;-1.932;2024-01-27T00:30:05;81;78;
49644;PMS5003;36494;50.730;-1.932;2024-01-27T00:32:29;96;91;
49644;PMS5003;36494;50.730;-1.932;2024-01-27T00:34:54;96;94;
49644;PMS5003;36494;50.730;-1.932;2024-01-27T00:37:22;106;103;
49644;PMS5003;36494;50.730;-1.932;2024-01-27T00:39:46;130;123;
49644;PMS5003;36494;50.730;-1.932;2024-01-27T00:42:11;126;124;
49644;PMS5003;36494;50.730;-1.932;2024-01-27T00:44:37;135;129;
49644;PMS5003;36494;50.730;-1.932;2024-01-27T00:47:02;123;118;
49644;PMS5003;36494;50.730;-1.932;2024-01-27T00:49:27;124;112;
49644;PMS5003;36494;50.730;-1.932;2024-01-27T00:51:53;85;81;
49644;PMS5003;36494;50.730;-1.932;2024-01-27T00:54:19;103;97;
49644;PMS5003;36494;50.730;-1.932;2024-01-27T00:56:44;106;102;
49644;PMS5003;36494;50.730;-1.932;2024-01-27T00:59:09;105;103;
49644;PMS5003;36494;50.730;-1.932;2024-01-27T01:01:35;74;73;
49644;PMS5003;36494;50.730;-1.932;2024-01-27T01:04:00;97;93;
49644;PMS5003;36494;50.730;-1.932;2024-01-27T01:06:26;61;59;
49644;PMS5003;36494;50.730;-1.932;2024-01-27T01:08:52;85;85;
49644;PMS5003;36494;50.730;-1.932;2024-01-27T01:11:18;91;87;
49644;PMS5003;36494;50.730;-1.932;2024-01-27T01:13:46;105;94;
49644;PMS5003;36494;50.730;-1.932;2024-01-27T01:16:09;85;82;
49644;PMS5003;36494;50.730;-1.932;2024-01-27T01:18:34;65;61;
49644;PMS5003;36494;50.730;-1.932;2024-01-27T01:20:59;58;56;
49644;PMS5003;36494;50.730;-1.932;2024-01-27T01:23:24;59;54;
49644;PMS5003;36494;50.730;-1.932;2024-01-27T01:25:50;62;59;
49644;PMS5003;36494;50.730;-1.932;2024-01-27T01:28:16;91;88;
49644;PMS5003;36494;50.730;-1.932;2024-01-27T01:30:42;73;69;
49644;PMS5003;36494;50.730;-1.932;2024-01-27T01:33:07;80;75;
49644;PMS5003;36494;50.730;-1.932;2024-01-27T01:35:33;96;87;
49644;PMS5003;36494;50.730;-1.932;2024-01-27T01:37:58;91;90;
49644;PMS5003;36494;50.730;-1.932;2024-01-27T01:40:24;81;78;
49644;PMS5003;36494;50.730;-1.932;2024-01-27T01:42:50;84;82;
49644;PMS5003;36494;50.730;-1.932;2024-01-27T01:45:16;75;69;
49644;PMS5003;36494;50.730;-1.932;2024-01-27T01:47:41;70;67;
49644;PMS5003;36494;50.730;-1.932;2024-01-27T01:50:08;60;57;
49644;PMS5003;36494;50.730;-1.932;2024-01-27T01:52:33;57;55;
49644;PMS5003;36494;50.730;-1.932;2024-01-27T01:54:58;54;51;
49644;PMS5003;36494;50.730;-1.932;2024-01-27T01:57:23;54;51;
49644;PMS5003;36494;50.730;-1.932;2024-01-27T01:59:49;48;43;
49644;PMS5003;36494;50.730;-1.932;2024-01-27T02:02:14;39;34;
49644;PMS5003;36494;50.730;-1.932;2024-01-27T02:04:40;21;21;
49644;PMS5003;36494;50.730;-1.932;2024-01-27T02:07:05;28;27;
49644;PMS5003;36494;50.730;-1.932;2024-01-27T02:09:31;21;21;
49644;PMS5003;36494;50.730;-1.932;2024-01-27T02:11:57;25;24;
49644;PMS5003;36494;50.730;-1.932;2024-01-27T02:14:23;23;23;
49644;PMS5003;36494;50.730;-1.932;2024-01-27T02:16:48;21;18;
49644;PMS5003;36494;50.730;-1.932;2024-01-27T02:19:14;24;24;
49644;PMS5003;36494;50.730;-1.932;2024-01-27T02:21:39;24;23;
49644;PMS5003;36494;50.730;-1.932;2024-01-27T02:24:06;15;15;
49644;PMS5003;36494;50.730;-1.932;2024-01-27T02:26:30;16;14;
49644;PMS5003;36494;50.730;-1.932;2024-01-27T02:28:56;16;16;
49644;PMS5003;36494;50.730;-1.932;2024-01-27T02:31:21;17;17;
49644;PMS5003;36494;50.730;-1.932;2024-01-27T02:33:46;18;17;
49644;PMS5003;36494;50.730;-1.932;2024-01-27T02:36:12;16;14;
49644;PMS5003;36494;50.730;-1.932;2024-01-27T02:38:37;16;16;
49644;PMS5003;36494;50.730;-1.932;2024-01-27T02:41:03;12;10;
49644;PMS5003;36494;50.730;-1.932;2024-01-27T02:43:28;13;10;
49644;PMS5003;36494;50.730;-1.932;2024-01-27T02:45:54;13;13;
49644;PMS5003;36494;50.730;-1.932;2024-01-27T02:48:19;10;10;
49644;PMS5003;36494;50.730;-1.932;2024-01-27T02:50:44;13;9;
49644;PMS5003;36494;50.730;-1.932;2024-01-27T02:53:10;15;15;
49644;PMS5003;36494;50.730;-1.932;2024-01-27T02:55:35;19;16;
49644;PMS5003;36494;50.730;-1.932;2024-01-27T02:58:00;12;10;
49644;PMS5003;36494;50.730;-1.932;2024-01-27T03:00:25;12;10;
49644;PMS5003;36494;50.730;-1.932;2024-01-27T03:02:51;13;12;
49644;PMS5003;36494;50.730;-1.932;2024-01-27T03:05:16;12;12;
49644;PMS5003;36494;50.730;-1.932;2024-01-27T03:07:42;12;10;
49644;PMS5003;36494;50.730;-1.932;2024-01-27T03:10:08;16;15;
49644;PMS5003;36494;50.730;-1.932;2024-01-27T03:12:33;19;16;
49644;PMS5003;36494;50.730;-1.932;2024-01-27T03:14:59;15;14;
49644;PMS5003;36494;50.730;-1.932;2024-01-27T03:17:24;19;15;
49644;PMS5003;36494;50.730;-1.932;2024-01-27T03:19:49;16;13;
49644;PMS5003;36494;50.730;-1.932;2024-01-27T03:22:14;16;16;
49644;PMS5003;36494;50.730;-1.932;2024-01-27T03:24:40;29;26;
49644;PMS5003;36494;50.730;-1.932;2024-01-27T03:27:09;40;35;
49644;PMS5003;36494;50.730;-1.932;2024-01-27T03:29:31;47;44;
49644;PMS5003;36494;50.730;-1.932;2024-01-27T03:31:57;59;54;
49644;PMS5003;36494;50.730;-1.932;2024-01-27T03:34:22;63;60;
49644;PMS5003;36494;50.730;-1.932;2024-01-27T03:36:48;58;57;
49644;PMS5003;36494;50.730;-1.932;2024-01-27T03:39:14;55;52;
49644;PMS5003;36494;50.730;-1.932;2024-01-27T03:41:39;59;56;
49644;PMS5003;36494;50.730;-1.932;2024-01-27T03:44:04;55;54;
49644;PMS5003;36494;50.730;-1.932;2024-01-27T03:46:31;82;81;
49644;PMS5003;36494;50.730;-1.932;2024-01-27T03:48:56;68;62;
49644;PMS5003;36494;50.730;-1.932;2024-01-27T03:51:21;53;50;
49644;PMS5003;36494;50.730;-1.932;2024-01-27T03:53:47;54;50;
49644;PMS5003;36494;50.730;-1.932;2024-01-27T03:56:12;60;57;
49644;PMS5003;36494;50.730;-1.932;2024-01-27T03:58:39;79;73;
49644;PMS5003;36494;50.730;-1.932;2024-01-27T04:01:05;66;64;
49644;PMS5003;36494;50.730;-1.932;2024-01-27T04:03:31;69;63;
49644;PMS5003;36494;50.730;-1.932;2024-01-27T04:05:56;64;60;
49644;PMS5003;36494;50.730;-1.932;2024-01-27T04:08:23;60;58;
49644;PMS5003;36494;50.730;-1.932;2024-01-27T04:10:49;60;58;
49644;PMS5003;36494;50.730;-1.932;2024-01-27T04:13:14;63;60;
49644;PMS5003;36494;50.730;-1.932;2024-01-27T04:15:41;48;46;
49644;PMS5003;36494;50.730;-1.932;2024-01-27T04:18:04;39;36;
49644;PMS5003;36494;50.730;-1.932;2024-01-27T04:20:29;57;57;
49644;PMS5003;36494;50.730;-1.932;2024-01-27T04:22:55;37;35;
49644;PMS5003;36494;50.730;-1.932;2024-01-27T04:25:20;39;38;
49644;PMS5003;36494;50.730;-1.932;2024-01-27T04:27:46;42;41;
49644;PMS5003;36494;50.730;-1.932;2024-01-27T04:30:11;36;35;
49644;PMS5003;36494;50.730;-1.932;2024-01-27T04:32:36;42;37;
49644;PMS5003;36494;50.730;-1.932;2024-01-27T04:35:02;34;33;
49644;PMS5003;36494;50.730;-1.932;2024-01-27T04:37:28;39;39;
49644;PMS5003;36494;50.730;-1.932;2024-01-27T04:39:54;31;29;
49644;PMS5003;36494;50.730;-1.932;2024-01-27T04:42:20;29;27;
49644;PMS5003;36494;50.730;-1.932;2024-01-27T04:44:46;25;23;
49644;PMS5003;36494;50.730;-1.932;2024-01-27T04:47:11;22;21;
49644;PMS5003;36494;50.730;-1.932;2024-01-27T04:49:37;19;16;
49644;PMS5003;36494;50.730;-1.932;2024-01-27T04:52:04;16;16;
49644;PMS5003;36494;50.730;-1.932;2024-01-27T04:54:28;22;19;
49644;PMS5003;36494;50.730;-1.932;2024-01-27T04:56:53;28;27;
49644;PMS5003;36494;50.730;-1.932;2024-01-27T04:59:18;30;28;
49644;PMS5003;36494;50.730;-1.932;2024-01-27T05:01:44;32;32;
49644;PMS5003;36494;50.730;-1.932;2024-01-27T05:04:10;33;33;
49644;PMS5003;36494;50.730;-1.932;2024-01-27T05:06:35;37;36;
49644;PMS5003;36494;50.730;-1.932;2024-01-27T05:09:00;35;34;
49644;PMS5003;36494;50.730;-1.932;2024-01-27T05:11:28;44;42;
49644;PMS5003;36494;50.730;-1.932;2024-01-27T05:13:51;44;41;
49644;PMS5003;36494;50.730;-1.932;2024-01-27T05:16:17;42;38;
49644;PMS5003;36494;50.730;-1.932;2024-01-27T05:18:42;46;44;
49644;PMS5003;36494;50.730;-1.932;2024-01-27T05:21:07;43;42;
49644;PMS5003;36494;50.730;-1.932;2024-01-27T05:23:33;43;42;
49644;PMS5003;36494;50.730;-1.932;2024-01-27T05:25:59;42;39;
49644;PMS5003;36494;50.730;-1.932;2024-01-27T05:28:25;37;36;
49644;PMS5003;36494;50.730;-1.932;2024-01-27T05:30:49;37;36;
49644;PMS5003;36494;50.730;-1.932;2024-01-27T05:33:15;27;25;
49644;PMS5003;36494;50.730;-1.932;2024-01-27T05:35:40;29;28;
49644;PMS5003;36494;50.730;-1.932;2024-01-27T05:38:06;33;28;
49644;PMS5003;36494;50.730;-1.932;2024-01-27T05:40:33;33;32;
49644;PMS5003;36494;50.730;-1.932;2024-01-27T05:42:56;30;29;
49644;PMS5003;36494;50.730;-1.932;2024-01-27T05:45:22;22;21;
49644;PMS5003;36494;50.730;-1.932;2024-01-27T05:47:47;23;23;
49644;PMS5003;36494;50.730;-1.932;2024-01-27T05:50:12;27;25;
49644;PMS5003;36494;50.730;-1.932;2024-01-27T05:52:38;36;35;
49644;PMS5003;36494;50.730;-1.932;2024-01-27T05:55:03;48;45;
49644;PMS5003;36494;50.730;-1.932;2024-01-27T05:57:29;42;40;
49644;PMS5003;36494;50.730;-1.932;2024-01-27T05:59:54;35;35;
49644;PMS5003;36494;50.730;-1.932;2024-01-27T06:02:20;31;27;
49644;PMS5003;36494;50.730;-1.932;2024-01-27T06:04:45;35;34;
49644;PMS5003;36494;50.730;-1.932;2024-01-27T06:07:11;34;33;
49644;PMS5003;36494;50.730;-1.932;2024-01-27T06:09:37;28;27;
49644;PMS5003;36494;50.730;-1.932;2024-01-27T06:12:03;22;21;
49644;PMS5003;36494;50.730;-1.932;2024-01-27T06:14:28;30;27;
49644;PMS5003;36494;50.730;-1.932;2024-01-27T06:16:53;23;22;
49644;PMS5003;36494;50.730;-1.932;2024-01-27T06:19:19;22;21;
49644;PMS5003;36494;50.730;-1.932;2024-01-27T06:21:44;21;21;
49644;PMS5003;36494;50.730;-1.932;2024-01-27T06:24:10;25;24;
49644;PMS5003;36494;50.730;-1.932;2024-01-27T06:26:35;24;23;
49644;PMS5003;36494;50.730;-1.932;2024-01-27T06:29:01;40;39;
49644;PMS5003;36494;50.730;-1.932;2024-01-27T06:31:26;51;46;
49644;PMS5003;36494;50.730;-1.932;2024-01-27T06:33:51;42;39;
49644;PMS5003;36494;50.730;-1.932;2024-01-27T06:36:16;27;25;
49644;PMS5003;36494;50.730;-1.932;2024-01-27T06:38:42;26;26;
49644;PMS5003;36494;50.730;-1.932;2024-01-27T06:41:09;23;23;
49644;PMS5003;36494;50.730;-1.932;2024-01-27T06:43:33;33;31;
49644;PMS5003;36494;50.730;-1.932;2024-01-27T06:45:58;36;33;
49644;PMS5003;36494;50.730;-1.932;2024-01-27T06:48:23;28;27;
49644;PMS5003;36494;50.730;-1.932;2024-01-27T06:50:49;33;31;
49644;PMS5003;36494;50.730;-1.932;2024-01-27T06:53:14;26;26;
49644;PMS5003;36494;50.730;-1.932;2024-01-27T06:55:40;27;24;
49644;PMS5003;36494;50.730;-1.932;2024-01-27T06:58:05;35;34;
49644;PMS5003;36494;50.730;-1.932;2024-01-27T07:00:30;38;35;
49644;PMS5003;36494;50.730;-1.932;2024-01-27T07:02:57;41;40;
49644;PMS5003;36494;50.730;-1.932;2024-01-27T07:05:21;41;39;
49644;PMS5003;36494;50.730;-1.932;2024-01-27T07:07:46;40;39;
49644;PMS5003;36494;50.730;-1.932;2024-01-27T07:10:12;44;42;
49644;PMS5003;36494;50.730;-1.932;2024-01-27T07:12:37;45;41;
49644;PMS5003;36494;50.730;-1.932;2024-01-27T07:15:03;40;40;
49644;PMS5003;36494;50.730;-1.932;2024-01-27T07:17:28;41;40;
49644;PMS5003;36494;50.730;-1.932;2024-01-27T07:19:53;41;35;
49644;PMS5003;36494;50.730;-1.932;2024-01-27T07:22:18;37;35;
49644;PMS5003;36494;50.730;-1.932;2024-01-27T07:24:44;37;32;
49644;PMS5003;36494;50.730;-1.932;2024-01-27T07:27:11;42;40;
49644;PMS5003;36494;50.730;-1.932;2024-01-27T07:29:36;38;37;
49644;PMS5003;36494;50.730;-1.932;2024-01-27T07:32:01;40;39;
49644;PMS5003;36494;50.730;-1.932;2024-01-27T07:34:27;43;39;
49644;PMS5003;36494;50.730;-1.932;2024-01-27T07:36:52;35;35;
49644;PMS5003;36494;50.730;-1.932;2024-01-27T07:39:18;40;38;
49644;PMS5003;36494;50.730;-1.932;2024-01-27T07:41:44;43;41;
49644;PMS5003;36494;50.730;-1.932;2024-01-27T07:44:09;40;37;
49644;PMS5003;36494;50.730;-1.932;2024-01-27T07:46:35;40;39;
49644;PMS5003;36494;50.730;-1.932;2024-01-27T07:49:01;38;38;
49644;PMS5003;36494;50.730;-1.932;2024-01-27T07:51:26;44;42;
49644;PMS5003;36494;50.730;-1.932;2024-01-27T07:53:52;39;38;
49644;PMS5003;36494;50.730;-1.932;2024-01-27T07:56:17;40;35;
49644;PMS5003;36494;50.730;-1.932;2024-01-27T07:58:42;41;38;
49644;PMS5003;36494;50.730;-1.932;2024-01-27T08:01:08;32;31;
49644;PMS5003;36494;50.730;-1.932;2024-01-27T08:03:33;35;33;
49644;PMS5003;36494;50.730;-1.932;2024-01-27T08:05:59;35;33;
49644;PMS5003;36494;50.730;-1.932;2024-01-27T08:08:25;33;32;
49644;PMS5003;36494;50.730;-1.932;2024-01-27T08:10:50;27;22;
49644;PMS5003;36494;50.730;-1.932;2024-01-27T08:13:15;19;17;
49644;PMS5003;36494;50.730;-1.932;2024-01-27T08:15:41;14;11;
49644;PMS5003;36494;50.730;-1.932;2024-01-27T08:18:06;10;10;
49644;PMS5003;36494;50.730;-1.932;2024-01-27T08:20:31;12;12;
49644;PMS5003;36494;50.730;-1.932;2024-01-27T08:22:57;13;13;
49644;PMS5003;36494;50.730;-1.932;2024-01-27T08:25:23;15;14;
49644;PMS5003;36494;50.730;-1.932;2024-01-27T08:27:48;16;14;
49644;PMS5003;36494;50.730;-1.932;2024-01-27T08:30:13;13;13;
49644;PMS5003;36494;50.730;-1.932;2024-01-27T08:32:38;13;12;
49644;PMS5003;36494;50.730;-1.932;2024-01-27T08:35:04;11;11;
49644;PMS5003;36494;50.730;-1.932;2024-01-27T08:37:29;20;16;
49644;PMS5003;36494;50.730;-1.932;2024-01-27T08:39:55;13;13;
49644;PMS5003;36494;50.730;-1.932;2024-01-27T08:42:21;18;17;
49644;PMS5003;36494;50.730;-1.932;2024-01-27T08:44:46;13;13;
49644;PMS5003;36494;50.730;-1.932;2024-01-27T08:47:11;13;13;
49644;PMS5003;36494;50.730;-1.932;2024-01-27T08:49:36;14;13;
49644;PMS5003;36494;50.730;-1.932;2024-01-27T08:52:02;15;14;
49644;PMS5003;36494;50.730;-1.932;2024-01-27T08:54:27;17;15;
49644;PMS5003;36494;50.730;-1.932;2024-01-27T08:56:53;16;15;
49644;PMS5003;36494;50.730;-1.932;2024-01-27T08:59:18;18;17;
49644;PMS5003;36494;50.730;-1.932;2024-01-27T09:01:44;23;21;
49644;PMS5003;36494;50.730;-1.932;2024-01-27T09:04:11;20;18;
49644;PMS5003;36494;50.730;-1.932;2024-01-27T09:06:35;21;21;
49644;PMS5003;36494;50.730;-1.932;2024-01-27T09:09:00;11;11;
49644;PMS5003;36494;50.730;-1.932;2024-01-27T09:11:26;12;11;
49644;PMS5003;36494;50.730;-1.932;2024-01-27T09:13:52;12;11;
49644;PMS5003;36494;50.730;-1.932;2024-01-27T09:16:20;8;8;
49644;PMS5003;36494;50.730;-1.932;2024-01-27T09:18:42;10;9;
49644;PMS5003;36494;50.730;-1.932;2024-01-27T09:21:07;7;7;
49644;PMS5003;36494;50.730;-1.932;2024-01-27T09:23:33;8;6;
49644;PMS5003;36494;50.730;-1.932;2024-01-27T09:25:58;6;6;
49644;PMS5003;36494;50.730;-1.932;2024-01-27T09:28:24;9;9;
49644;PMS5003;36494;50.730;-1.932;2024-01-27T09:30:49;6;6;
49644;PMS5003;36494;50.730;-1.932;2024-01-27T09:33:15;5;5;
49644;PMS5003;36494;50.730;-1.932;2024-01-27T09:35:40;5;5;
49644;PMS5003;36494;50.730;-1.932;2024-01-27T09:38:06;7;5;
49644;PMS5003;36494;50.730;-1.932;2024-01-27T09:40:34;22;20;
49644;PMS5003;36494;50.730;-1.932;2024-01-27T09:42:58;6;4;
49644;PMS5003;36494;50.730;-1.932;2024-01-27T09:45:22;8;7;
49644;PMS5003;36494;50.730;-1.932;2024-01-27T09:47:47;5;5;
49644;PMS5003;36494;50.730;-1.932;2024-01-27T09:50:14;6;6;
49644;PMS5003;36494;50.730;-1.932;2024-01-27T09:52:38;8;8;
49644;PMS5003;36494;50.730;-1.932;2024-01-27T09:55:04;7;7;
49644;PMS5003;36494;50.730;-1.932;2024-01-27T09:57:29;5;5;
49644;PMS5003;36494;50.730;-1.932;2024-01-27T09:59:55;16;16;
49644;PMS5003;36494;50.730;-1.932;2024-01-27T10:02:20;5;5;
49644;PMS5003;36494;50.730;-1.932;2024-01-27T10:04:47;8;7;
49644;PMS5003;36494;50.730;-1.932;2024-01-27T10:07:11;6;5;
49644;PMS5003;36494;50.730;-1.932;2024-01-27T10:09:36;20;20;
49644;PMS5003;36494;50.730;-1.932;2024-01-27T10:12:02;8;8;
49644;PMS5003;36494;50.730;-1.932;2024-01-27T10:16:53;12;11;
49644;PMS5003;36494;50.730;-1.932;2024-01-27T10:19:19;7;7;
49644;PMS5003;36494;50.730;-1.932;2024-01-27T10:21:44;9;6;
49644;PMS5003;36494;50.730;-1.932;2024-01-27T10:24:10;6;6;
49644;PMS5003;36494;50.730;-1.932;2024-01-27T10:26:35;8;7;
49644;PMS5003;36494;50.730;-1.932;2024-01-27T10:29:04;7;7;
49644;PMS5003;36494;50.730;-1.932;2024-01-27T10:31:26;9;8;
49644;PMS5003;36494;50.730;-1.932;2024-01-27T10:33:51;9;9;
49644;PMS5003;36494;50.730;-1.932;2024-01-27T10:36:17;8;6;
49644;PMS5003;36494;50.730;-1.932;2024-01-27T10:38:42;9;9;
49644;PMS5003;36494;50.730;-1.932;2024-01-27T10:41:08;9;9;
49644;PMS5003;36494;50.730;-1.932;2024-01-27T10:43:33;9;8;
49644;PMS5003;36494;50.730;-1.932;2024-01-27T10:45:58;8;8;
49644;PMS5003;36494;50.730;-1.932;2024-01-27T10:48:23;5;4;
49644;PMS5003;36494;50.730;-1.932;2024-01-27T10:50:49;7;6;
49644;PMS5003;36494;50.730;-1.932;2024-01-27T10:53:19;4;4;
49644;PMS5003;36494;50.730;-1.932;2024-01-27T10:55:39;4;4;
49644;PMS5003;36494;50.730;-1.932;2024-01-27T10:58:04;5;5;
49644;PMS5003;36494;50.730;-1.932;2024-01-27T11:00:30;6;6;
49644;PMS5003;36494;50.730;-1.932;2024-01-27T11:02:55;7;7;
49644;PMS5003;36494;50.730;-1.932;2024-01-27T11:05:20;7;6;
49644;PMS5003;36494;50.730;-1.932;2024-01-27T11:07:45;10;9;
49644;PMS5003;36494;50.730;-1.932;2024-01-27T11:10:10;8;8;
49644;PMS5003;36494;50.730;-1.932;2024-01-27T11:12:35;8;6;
49644;PMS5003;36494;50.730;-1.932;2024-01-27T11:15:01;6;5;
49644;PMS5003;36494;50.730;-1.932;2024-01-27T11:17:28;9;8;
49644;PMS5003;36494;50.730;-1.932;2024-01-27T11:19:52;7;7;
49644;PMS5003;36494;50.730;-1.932;2024-01-27T11:24:42;6;5;
49644;PMS5003;36494;50.730;-1.932;2024-01-27T11:27:07;4;4;
49644;PMS5003;36494;50.730;-1.932;2024-01-27T11:29:35;5;5;
49644;PMS5003;36494;50.730;-1.932;2024-01-27T11:31:59;4;4;
49644;PMS5003;36494;50.730;-1.932;2024-01-27T11:34:23;4;4;
49644;PMS5003;36494;50.730;-1.932;2024-01-27T11:36:49;4;4;
49644;PMS5003;36494;50.730;-1.932;2024-01-27T11:39:23;4;4;
49644;PMS5003;36494;50.730;-1.932;2024-01-27T11:41:39;4;4;
49644;PMS5003;36494;50.730;-1.932;2024-01-27T11:44:05;2;2;
49644;PMS5003;36494;50.730;-1.932;2024-01-27T11:46:30;3;2;
49644;PMS5003;36494;50.730;-1.932;2024-01-27T11:48:56;5;3;
49644;PMS5003;36494;50.730;-1.932;2024-01-27T11:51:21;2;2;
49644;PMS5003;36494;50.730;-1.932;2024-01-27T11:53:46;2;2;
49644;PMS5003;36494;50.730;-1.932;2024-01-27T11:56:12;2;2;
49644;PMS5003;36494;50.730;-1.932;2024-01-27T11:58:37;5;5;
49644;PMS5003;36494;50.730;-1.932;2024-01-27T12:01:02;3;3;
49644;PMS5003;36494;50.730;-1.932;2024-01-27T12:03:27;6;6;
49644;PMS5003;36494;50.730;-1.932;2024-01-27T12:05:52;2;2;
49644;PMS5003;36494;50.730;-1.932;2024-01-27T12:08:17;1;1;
49644;PMS5003;36494;50.730;-1.932;2024-01-27T12:10:43;1;1;
49644;PMS5003;36494;50.730;-1.932;2024-01-27T12:13:08;5;4;
49644;PMS5003;36494;50.730;-1.932;2024-01-27T12:15:33;3;2;
49644;PMS5003;36494;50.730;-1.932;2024-01-27T12:17:59;4;4;
49644;PMS5003;36494;50.730;-1.932;2024-01-27T12:20:24;4;4;
49644;PMS5003;36494;50.730;-1.932;2024-01-27T12:22:50;3;3;
49644;PMS5003;36494;50.730;-1.932;2024-01-27T12:25:15;4;2;
49644;PMS5003;36494;50.730;-1.932;2024-01-27T12:27:40;2;1;
49644;PMS5003;36494;50.730;-1.932;2024-01-27T12:30:06;2;2;
49644;PMS5003;36494;50.730;-1.932;2024-01-27T12:32:31;3;3;
49644;PMS5003;36494;50.730;-1.932;2024-01-27T12:34:57;3;3;
49644;PMS5003;36494;50.730;-1.932;2024-01-27T12:37:21;2;2;
49644;PMS5003;36494;50.730;-1.932;2024-01-27T12:39:46;3;2;
49644;PMS5003;36494;50.730;-1.932;2024-01-27T12:42:12;4;2;
49644;PMS5003;36494;50.730;-1.932;2024-01-27T12:44:37;4;4;
49644;PMS5003;36494;50.730;-1.932;2024-01-27T12:47:03;4;4;
49644;PMS5003;36494;50.730;-1.932;2024-01-27T12:49:29;2;1;
49644;PMS5003;36494;50.730;-1.932;2024-01-27T12:51:53;7;4;
49644;PMS5003;36494;50.730;-1.932;2024-01-27T12:54:18;2;2;
49644;PMS5003;36494;50.730;-1.932;2024-01-27T12:56:44;2;2;
49644;PMS5003;36494;50.730;-1.932;2024-01-27T12:59:09;3;2;
49644;PMS5003;36494;50.730;-1.932;2024-01-27T13:01:34;8;8;
49644;PMS5003;36494;50.730;-1.932;2024-01-27T13:04:00;3;3;
49644;PMS5003;36494;50.730;-1.932;2024-01-27T13:06:25;3;3;
49644;PMS5003;36494;50.730;-1.932;2024-01-27T13:08:51;3;3;
49644;PMS5003;36494;50.730;-1.932;2024-01-27T13:11:16;5;5;
49644;PMS5003;36494;50.730;-1.932;2024-01-27T13:13:42;2;2;
49644;PMS5003;36494;50.730;-1.932;2024-01-27T13:16:07;4;3;
49644;PMS5003;36494;50.730;-1.932;2024-01-27T13:18:33;2;2;
49644;PMS5003;36494;50.730;-1.932;2024-01-27T13:20:58;2;1;
49644;PMS5003;36494;50.730;-1.932;2024-01-27T13:23:24;2;2;
49644;PMS5003;36494;50.730;-1.932;2024-01-27T13:25:50;3;2;
49644;PMS5003;36494;50.730;-1.932;2024-01-27T13:28:15;6;4;
49644;PMS5003;36494;50.730;-1.932;2024-01-27T13:30:41;3;3;
49644;PMS5003;36494;50.730;-1.932;2024-01-27T13:33:06;5;5;
49644;PMS5003;36494;50.730;-1.932;2024-01-27T13:35:32;4;4;
49644;PMS5003;36494;50.730;-1.932;2024-01-27T13:37:57;2;2;
49644;PMS5003;36494;50.730;-1.932;2024-01-27T13:40:23;3;3;
49644;PMS5003;36494;50.730;-1.932;2024-01-27T13:42:48;2;2;
49644;PMS5003;36494;50.730;-1.932;2024-01-27T13:45:13;4;4;
49644;PMS5003;36494;50.730;-1.932;2024-01-27T13:47:38;6;5;
49644;PMS5003;36494;50.730;-1.932;2024-01-27T13:50:04;4;4;
49644;PMS5003;36494;50.730;-1.932;2024-01-27T13:52:29;4;4;
49644;PMS5003;36494;50.730;-1.932;2024-01-27T13:54:54;4;4;
49644;PMS5003;36494;50.730;-1.932;2024-01-27T13:57:19;4;3;
49644;PMS5003;36494;50.730;-1.932;2024-01-27T13:59:45;4;4;
49644;PMS5003;36494;50.730;-1.932;2024-01-27T14:02:10;6;5;
49644;PMS5003;36494;50.730;-1.932;2024-01-27T14:04:35;5;5;
49644;PMS5003;36494;50.730;-1.932;2024-01-27T14:07:01;7;5;
49644;PMS5003;36494;50.730;-1.932;2024-01-27T14:09:26;20;19;
49644;PMS5003;36494;50.730;-1.932;2024-01-27T14:11:51;10;9;
49644;PMS5003;36494;50.730;-1.932;2024-01-27T14:14:17;6;6;
49644;PMS5003;36494;50.730;-1.932;2024-01-27T14:16:43;7;6;
49644;PMS5003;36494;50.730;-1.932;2024-01-27T14:19:07;5;4;
49644;PMS5003;36494;50.730;-1.932;2024-01-27T14:21:33;8;8;
49644;PMS5003;36494;50.730;-1.932;2024-01-27T14:23:58;6;6;
49644;PMS5003;36494;50.730;-1.932;2024-01-27T14:26:23;5;5;
49644;PMS5003;36494;50.730;-1.932;2024-01-27T14:28:49;6;6;
49644;PMS5003;36494;50.730;-1.932;2024-01-27T14:31:14;53;45;
49644;PMS5003;36494;50.730;-1.932;2024-01-27T14:33:40;40;38;
49644;PMS5003;36494;50.730;-1.932;2024-01-27T14:36:06;15;14;
49644;PMS5003;36494;50.730;-1.932;2024-01-27T14:38:31;60;55;
49644;PMS5003;36494;50.730;-1.932;2024-01-27T14:40:56;83;80;
49644;PMS5003;36494;50.730;-1.932;2024-01-27T14:43:22;91;86;
49644;PMS5003;36494;50.730;-1.932;2024-01-27T14:45:48;33;29;
49644;PMS5003;36494;50.730;-1.932;2024-01-27T14:48:13;53;52;
49644;PMS5003;36494;50.730;-1.932;2024-01-27T14:50:39;162;154;
49644;PMS5003;36494;50.730;-1.932;2024-01-27T14:53:04;61;60;
49644;PMS5003;36494;50.730;-1.932;2024-01-27T14:55:30;46;43;
49644;PMS5003;36494;50.730;-1.932;2024-01-27T14:57:54;43;42;
49644;PMS5003;36494;50.730;-1.932;2024-01-27T15:00:20;19;18;
49644;PMS5003;36494;50.730;-1.932;2024-01-27T15:02:45;20;20;
49644;PMS5003;36494;50.730;-1.932;2024-01-27T15:05:11;20;18;
49644;PMS5003;36494;50.730;-1.932;2024-01-27T15:07:36;17;16;
49644;PMS5003;36494;50.730;-1.932;2024-01-27T15:10:01;17;17;
49644;PMS5003;36494;50.730;-1.932;2024-01-27T15:12:27;5;5;
49644;PMS5003;36494;50.730;-1.932;2024-01-27T15:14:52;12;11;
49644;PMS5003;36494;50.730;-1.932;2024-01-27T15:17:17;11;11;
49644;PMS5003;36494;50.730;-1.932;2024-01-27T15:19:43;11;11;
49644;PMS5003;36494;50.730;-1.932;2024-01-27T15:22:09;6;5;
49644;PMS5003;36494;50.730;-1.932;2024-01-27T15:24:34;6;6;
49644;PMS5003;36494;50.730;-1.932;2024-01-27T15:26:59;6;6;
49644;PMS5003;36494;50.730;-1.932;2024-01-27T15:29:24;5;5;
49644;PMS5003;36494;50.730;-1.932;2024-01-27T15:31:50;5;5;
49644;PMS5003;36494;50.730;-1.932;2024-01-27T15:34:15;3;3;
49644;PMS5003;36494;50.730;-1.932;2024-01-27T15:36:41;3;3;
49644;PMS5003;36494;50.730;-1.932;2024-01-27T15:39:06;6;5;
49644;PMS5003;36494;50.730;-1.932;2024-01-27T15:41:31;4;3;
49644;PMS5003;36494;50.730;-1.932;2024-01-27T15:43:56;4;4;
49644;PMS5003;36494;50.730;-1.932;2024-01-27T15:46:22;6;5;
49644;PMS5003;36494;50.730;-1.932;2024-01-27T15:48:47;5;5;
49644;PMS5003;36494;50.730;-1.932;2024-01-27T15:51:12;6;5;
49644;PMS5003;36494;50.730;-1.932;2024-01-27T15:53:37;2;2;
49644;PMS5003;36494;50.730;-1.932;2024-01-27T15:56:03;3;3;
49644;PMS5003;36494;50.730;-1.932;2024-01-27T15:58:28;2;2;
49644;PMS5003;36494;50.730;-1.932;2024-01-27T16:00:54;3;3;
49644;PMS5003;36494;50.730;-1.932;2024-01-27T16:03:19;3;3;